Time,TemperatureF,DewpointF,PressureIn,WindDirection,WindDirectionDegrees,WindSpeedMPH,WindSpeedGustMPH,Humidity,HourlyPrecipIn,Conditions,Clouds,dailyrainin,SoftwareType,DateUTC
2013-03-02 00:01:00,32.5,18.6,30.25,SW,221,4.0,8.1,56,0.00,,CLR,0.00,VWS V14.01,2013-03-02 07:01:00,
2013-03-02 00:06:00,33.1,19.1,30.25,South,191,3.6,4.9,56,0.00,,CLR,0.00,VWS V14.01,2013-03-02 07:06:00,
2013-03-02 00:11:00,32.2,18.3,30.25,WSW,237,6.7,7.6,56,0.00,,CLR,0.00,VWS V14.01,2013-03-02 07:11:00,
2013-03-02 00:16:00,32.5,19.4,30.25,West,259,5.8,8.1,58,0.00,,CLR,0.00,VWS V14.01,2013-03-02 07:16:00,
2013-03-02 00:21:00,32.5,18.6,30.25,West,263,5.8,8.1,56,0.00,,CLR,0.00,VWS V14.01,2013-03-02 07:21:00,
2013-03-02 00:26:00,31.3,18.2,30.25,SW,234,6.3,8.1,58,0.00,,CLR,0.00,VWS V14.01,2013-03-02 07:26:00,
2013-03-02 00:31:00,32.0,18.5,30.25,SW,216,4.0,8.1,57,0.00,,CLR,0.00,VWS V14.01,2013-03-02 07:31:00,
2013-03-02 00:36:00,31.1,17.7,30.25,WSW,247,4.5,5.8,57,0.00,,CLR,0.00,VWS V14.01,2013-03-02 07:36:00,
2013-03-02 00:41:00,30.0,18.2,30.25,SW,224,6.3,6.3,61,0.00,,CLR,0.00,VWS V14.01,2013-03-02 07:41:00,
2013-03-02 00:46:00,30.2,18.8,30.25,SW,217,5.8,6.3,62,0.00,,CLR,0.00,VWS V14.01,2013-03-02 07:46:00,
2013-03-02 00:51:00,30.7,18.5,30.25,SW,216,5.8,7.6,60,0.00,,CLR,0.00,VWS V14.01,2013-03-02 07:51:00,
2013-03-02 00:56:00,30.9,18.3,30.25,SW,234,6.3,7.6,59,0.00,,CLR,0.00,VWS V14.01,2013-03-02 07:56:00,
2013-03-02 01:01:00,30.9,18.3,30.25,SW,234,4.0,7.6,59,0.00,,CLR,0.00,VWS V14.01,2013-03-02 08:01:00,
2013-03-02 01:06:00,31.3,18.2,30.25,SW,219,4.0,5.4,58,0.00,,CLR,0.00,VWS V14.01,2013-03-02 08:06:00,
2013-03-02 01:11:00,32.2,19.5,30.25,South,184,5.4,7.2,59,0.00,,CLR,0.00,VWS V14.01,2013-03-02 08:11:00,
2013-03-02 01:16:00,32.2,19.1,30.25,SSW,203,6.3,7.2,58,0.00,,CLR,0.00,VWS V14.01,2013-03-02 08:16:00,
2013-03-02 01:21:00,32.4,18.8,30.25,SSW,206,5.4,7.2,57,0.00,,CLR,0.00,VWS V14.01,2013-03-02 08:21:00,
2013-03-02 01:26:00,31.6,18.2,30.25,SW,231,5.8,7.2,57,0.00,,CLR,0.00,VWS V14.01,2013-03-02 08:26:00,
2013-03-02 01:31:00,31.5,18.4,30.25,SSW,210,8.1,8.1,58,0.00,,CLR,0.00,VWS V14.01,2013-03-02 08:31:00,
2013-03-02 01:36:00,31.1,18.1,30.25,SW,219,5.8,8.1,58,0.00,,CLR,0.00,VWS V14.01,2013-03-02 08:36:00,
2013-03-02 01:41:00,34.3,19.9,30.25,South,184,6.7,8.1,55,0.00,,CLR,0.00,VWS V14.01,2013-03-02 08:41:00,
2013-03-02 01:46:00,33.6,17.9,30.25,SSW,199,6.3,8.1,52,0.00,,CLR,0.00,VWS V14.01,2013-03-02 08:46:00,
2013-03-02 01:51:00,34.2,18.4,30.25,South,181,5.4,8.1,52,0.00,,CLR,0.00,VWS V14.01,2013-03-02 08:51:00,
2013-03-02 01:56:00,34.0,18.2,30.25,SSW,194,8.7,8.7,52,0.00,,CLR,0.00,VWS V14.01,2013-03-02 08:56:00,
2013-03-02 02:01:00,36.0,19.6,30.25,SSE,164,7.6,9.6,51,0.00,,CLR,0.00,VWS V14.01,2013-03-02 09:01:00,
2013-03-02 02:06:00,34.0,17.3,30.25,NW,308,6.3,8.7,50,0.00,,CLR,0.00,VWS V14.01,2013-03-02 09:06:00,
2013-03-02 02:11:00,33.6,17.4,30.25,WNW,300,0.0,8.7,51,0.00,,CLR,0.00,VWS V14.01,2013-03-02 09:11:00,
2013-03-02 02:16:00,33.8,18.0,30.25,SSE,164,4.9,8.7,52,0.00,,CLR,0.00,VWS V14.01,2013-03-02 09:16:00,
2013-03-02 02:21:00,33.1,17.8,30.25,SSW,207,5.4,8.7,53,0.00,,CLR,0.00,VWS V14.01,2013-03-02 09:21:00,
2013-03-02 02:26:00,33.1,17.8,30.25,South,188,5.8,8.7,53,0.00,,CLR,0.00,VWS V14.01,2013-03-02 09:26:00,
2013-03-02 02:31:00,32.7,17.5,30.25,SSW,207,5.8,8.7,53,0.00,,CLR,0.00,VWS V14.01,2013-03-02 09:31:00,
2013-03-02 02:36:00,32.7,17.5,30.25,SSW,201,6.7,8.1,53,0.00,,CLR,0.00,VWS V14.01,2013-03-02 09:36:00,
2013-03-02 02:41:00,32.0,17.2,30.25,WSW,237,6.7,8.1,54,0.00,,CLR,0.00,VWS V14.01,2013-03-02 09:41:00,
2013-03-02 02:46:00,32.2,17.4,30.25,SW,235,5.4,8.1,54,0.00,,CLR,0.00,VWS V14.01,2013-03-02 09:46:00,
2013-03-02 02:51:00,32.9,18.5,30.25,SW,227,7.6,8.3,55,0.00,,CLR,0.00,VWS V14.01,2013-03-02 09:51:00,
2013-03-02 02:56:00,33.4,18.2,30.25,SSW,203,5.4,8.3,53,0.00,,CLR,0.00,VWS V14.01,2013-03-02 09:56:00,
2013-03-02 03:01:00,34.5,17.8,30.25,SW,216,5.8,5.8,50,0.00,,CLR,0.00,VWS V14.01,2013-03-02 10:01:00,
2013-03-02 03:06:00,33.8,17.6,30.25,SW,224,4.5,7.6,51,0.00,,CLR,0.00,VWS V14.01,2013-03-02 10:06:00,
2013-03-02 03:12:00,34.0,17.8,30.25,SSW,198,5.8,7.6,51,0.00,,CLR,0.00,VWS V14.01,2013-03-02 10:12:00,
2013-03-02 03:17:00,34.2,17.9,30.25,SW,222,7.2,7.6,51,0.00,,CLR,0.00,VWS V14.01,2013-03-02 10:17:00,
2013-03-02 03:22:00,34.9,18.6,30.25,SW,234,5.4,7.6,51,0.00,,CLR,0.00,VWS V14.01,2013-03-02 10:22:00,
2013-03-02 03:27:00,35.1,18.3,30.25,SSW,203,3.1,7.6,50,0.00,,CLR,0.00,VWS V14.01,2013-03-02 10:27:00,
2013-03-02 03:32:00,35.4,18.6,30.25,SSW,192,5.4,7.6,50,0.00,,CLR,0.00,VWS V14.01,2013-03-02 10:32:00,
2013-03-02 03:42:00,35.8,18.0,30.25,SSW,195,5.8,8.3,48,0.00,,CLR,0.00,VWS V14.01,2013-03-02 10:42:00,
2013-03-02 03:47:00,35.4,19.1,30.25,SSW,200,4.0,8.3,51,0.00,,CLR,0.00,VWS V14.01,2013-03-02 10:47:00,
2013-03-02 03:52:00,34.3,18.5,30.25,WSW,240,4.9,8.3,52,0.00,,CLR,0.00,VWS V14.01,2013-03-02 10:52:00,
2013-03-02 03:57:00,33.3,18.9,30.25,SW,228,4.5,8.3,55,0.00,,CLR,0.00,VWS V14.01,2013-03-02 10:57:00,
2013-03-02 04:02:00,33.3,18.9,30.25,SW,222,4.9,6.3,55,0.00,,CLR,0.00,VWS V14.01,2013-03-02 11:02:00,
2013-03-02 04:07:00,33.8,18.0,30.25,WSW,253,5.4,6.3,52,0.00,,CLR,0.00,VWS V14.01,2013-03-02 11:07:00,
2013-03-02 04:12:00,33.1,18.3,30.25,SW,231,4.9,6.3,54,0.00,,CLR,0.00,VWS V14.01,2013-03-02 11:12:00,
2013-03-02 04:17:00,33.3,18.4,30.25,SW,232,5.4,6.3,54,0.00,,CLR,0.00,VWS V14.01,2013-03-02 11:17:00,
2013-03-02 04:22:00,33.3,18.0,30.25,WSW,253,3.6,7.2,53,0.00,,CLR,0.00,VWS V14.01,2013-03-02 11:22:00,
2013-03-02 04:27:00,33.3,18.0,30.25,SW,226,4.9,7.2,53,0.00,,CLR,0.00,VWS V14.01,2013-03-02 11:27:00,
2013-03-02 04:32:00,33.1,17.8,30.25,SW,221,4.9,5.4,53,0.00,,CLR,0.00,VWS V14.01,2013-03-02 11:32:00,
2013-03-02 04:37:00,32.7,17.9,30.25,SSW,211,2.7,5.8,54,0.00,,CLR,0.00,VWS V14.01,2013-03-02 11:37:00,
2013-03-02 04:42:00,33.6,18.8,30.25,SSW,207,0.0,5.8,54,0.00,,CLR,0.00,VWS V14.01,2013-03-02 11:42:00,
2013-03-02 04:47:00,33.8,17.6,30.25,SSW,197,3.1,5.8,51,0.00,,CLR,0.00,VWS V14.01,2013-03-02 11:47:00,
2013-03-02 04:52:00,33.8,17.6,30.25,South,180,3.1,5.8,51,0.00,,CLR,0.00,VWS V14.01,2013-03-02 11:52:00,
2013-03-02 04:57:00,33.6,17.4,30.25,South,190,0.0,5.8,51,0.00,,CLR,0.00,VWS V14.01,2013-03-02 11:57:00,
2013-03-02 05:02:00,33.4,17.3,30.25,South,190,2.7,2.7,51,0.00,,CLR,0.00,VWS V14.01,2013-03-02 12:02:00,
2013-03-02 05:07:00,35.8,16.5,30.25,WNW,288,5.4,5.4,45,0.00,,SCT120,0.00,VWS V14.01,2013-03-02 12:07:00,
2013-03-02 05:12:00,43.5,19.6,30.25,NNW,346,5.4,13.2,38,0.00,,SCT120,0.00,VWS V14.01,2013-03-02 12:12:00,
2013-03-02 05:17:00,40.6,17.6,30.25,NW,319,2.7,13.2,39,0.00,,SCT120,0.00,VWS V14.01,2013-03-02 12:17:00,
2013-03-02 05:22:00,37.9,15.8,30.25,North,353,0.0,13.2,40,0.00,,SCT120,0.00,VWS V14.01,2013-03-02 12:22:00,
2013-03-02 05:27:00,42.8,19.0,30.25,NW,309,6.3,13.2,38,0.00,,SCT120,0.00,VWS V14.01,2013-03-02 12:27:00,
2013-03-02 05:32:00,45.5,17.4,30.25,West,277,4.9,7.6,32,0.00,,SCT120,0.00,VWS V14.01,2013-03-02 12:32:00,
2013-03-02 05:37:00,47.5,17.6,30.25,WNW,286,10.1,15.0,30,0.00,,SCT120,0.00,VWS V14.01,2013-03-02 12:37:00,
2013-03-02 05:42:00,46.8,17.0,30.22,North,350,5.4,15.0,30,0.00,,SCT120,0.00,VWS V14.01,2013-03-02 12:42:00,
2013-03-02 05:47:00,43.3,16.2,30.22,NNE,25,0.0,15.0,33,0.00,,SCT120,0.00,VWS V14.01,2013-03-02 12:47:00,
2013-03-02 05:52:00,40.5,15.0,30.22,NE,34,2.2,15.0,35,0.00,,SCT120,0.00,VWS V14.01,2013-03-02 12:52:00,
2013-03-02 05:57:00,38.8,15.4,30.25,North,357,2.2,15.0,38,0.00,,SCT120,0.00,VWS V14.01,2013-03-02 12:57:00,
2013-03-02 06:02:00,38.8,16.0,30.25,WNW,285,0.0,5.4,39,0.00,,SCT120,0.00,VWS V14.01,2013-03-02 13:02:00,
2013-03-02 06:07:00,39.9,16.4,30.25,NW,306,4.9,6.3,38,0.00,,SCT120,0.00,VWS V14.01,2013-03-02 13:07:00,
2013-03-02 06:12:00,42.8,17.1,30.25,WNW,297,4.9,8.1,35,0.00,,CLR,0.00,VWS V14.01,2013-03-02 13:12:00,
2013-03-02 06:17:00,43.3,16.9,30.25,West,278,3.1,8.1,34,0.00,,CLR,0.00,VWS V14.01,2013-03-02 13:17:00,
2013-03-02 06:22:00,45.9,17.7,30.25,NW,305,5.8,8.7,32,0.00,,CLR,0.00,VWS V14.01,2013-03-02 13:22:00,
2013-03-02 06:27:00,46.2,17.3,30.22,NW,311,8.3,12.3,31,0.00,,CLR,0.00,VWS V14.01,2013-03-02 13:27:00,
2013-03-02 06:32:00,44.8,16.7,30.22,NW,315,5.8,7.6,32,0.00,,CLR,0.00,VWS V14.01,2013-03-02 13:32:00,
2013-03-02 06:37:00,44.4,16.4,30.22,NW,309,8.3,8.3,32,0.00,,CLR,0.00,VWS V14.01,2013-03-02 13:37:00,
2013-03-02 06:42:00,45.9,17.0,30.25,NW,304,6.3,9.2,31,0.00,,CLR,0.00,VWS V14.01,2013-03-02 13:42:00,
2013-03-02 06:47:00,45.7,16.8,30.25,NW,306,10.5,10.5,31,0.00,,CLR,0.00,VWS V14.01,2013-03-02 13:47:00,
2013-03-02 06:52:00,45.7,16.8,30.25,NW,319,8.3,12.8,31,0.00,,CLR,0.00,VWS V14.01,2013-03-02 13:52:00,
2013-03-02 06:57:00,45.1,16.3,30.22,WNW,298,5.8,12.8,31,0.00,,CLR,0.00,VWS V14.01,2013-03-02 13:57:00,
2013-03-02 07:02:00,45.9,16.2,30.22,WNW,294,8.1,10.1,30,0.00,,CLR,0.00,VWS V14.01,2013-03-02 14:02:00,
2013-03-02 07:07:00,46.9,16.4,30.22,NW,315,17.4,17.4,29,0.00,,CLR,0.00,VWS V14.01,2013-03-02 14:07:00,
2013-03-02 07:12:00,47.1,16.5,30.22,WNW,295,11.0,17.4,29,0.00,,CLR,0.00,VWS V14.01,2013-03-02 14:12:00,
2013-03-02 07:17:00,47.3,16.7,30.22,West,281,12.3,17.4,29,0.00,,CLR,0.00,VWS V14.01,2013-03-02 14:17:00,
2013-03-02 07:22:00,47.3,16.7,30.22,NW,308,7.6,17.4,29,0.00,,CLR,0.00,VWS V14.01,2013-03-02 14:22:00,
2013-03-02 07:27:00,47.3,16.7,30.22,West,274,10.5,17.4,29,0.00,,CLR,0.00,VWS V14.01,2013-03-02 14:27:00,
2013-03-02 07:32:00,48.7,17.1,30.22,NW,317,8.3,13.2,28,0.00,,CLR,0.00,VWS V14.01,2013-03-02 14:32:00,
2013-03-02 07:37:00,48.0,17.3,30.22,WNW,293,7.2,13.2,29,0.00,,CLR,0.00,VWS V14.01,2013-03-02 14:37:00,
2013-03-02 07:42:00,47.3,16.7,30.22,NW,314,7.6,13.2,29,0.00,,CLR,0.00,VWS V14.01,2013-03-02 14:42:00,
2013-03-02 07:47:00,46.8,16.2,30.22,WNW,303,5.4,13.2,29,0.00,,CLR,0.00,VWS V14.01,2013-03-02 14:47:00,
2013-03-02 07:52:00,47.1,16.5,30.22,West,273,3.1,13.2,29,0.00,,CLR,0.00,VWS V14.01,2013-03-02 14:52:00,
2013-03-02 07:57:00,46.6,16.0,30.22,NNW,332,8.7,13.2,29,0.00,,CLR,0.00,VWS V14.01,2013-03-02 14:57:00,
2013-03-02 08:02:00,45.1,16.3,30.22,East,91,6.3,7.6,31,0.00,,CLR,0.00,VWS V14.01,2013-03-02 15:02:00,
2013-03-02 08:07:00,43.2,16.0,30.22,East,86,3.1,7.6,33,0.00,,CLR,0.00,VWS V14.01,2013-03-02 15:07:00,
2013-03-02 08:12:00,42.4,16.1,30.22,SE,126,5.8,7.6,34,0.00,,CLR,0.00,VWS V14.01,2013-03-02 15:12:00,
2013-03-02 08:17:00,42.4,17.4,30.22,SE,140,4.9,7.6,36,0.00,,CLR,0.00,VWS V14.01,2013-03-02 15:17:00,
2013-03-02 08:22:00,42.4,17.4,30.22,SE,127,4.9,7.6,36,0.00,,CLR,0.00,VWS V14.01,2013-03-02 15:22:00,
2013-03-02 08:27:00,43.0,17.9,30.22,SE,138,4.9,7.6,36,0.00,,CLR,0.00,VWS V14.01,2013-03-02 15:27:00,
2013-03-02 08:32:00,43.5,17.7,30.22,ESE,123,3.1,3.1,35,0.00,,CLR,0.00,VWS V14.01,2013-03-02 15:32:00,
2013-03-02 08:37:00,43.3,18.8,30.22,SSE,150,5.4,6.3,37,0.00,,CLR,0.00,VWS V14.01,2013-03-02 15:37:00,
2013-03-02 08:42:00,45.1,19.1,30.22,SSW,203,4.0,6.3,35,0.00,,CLR,0.00,VWS V14.01,2013-03-02 15:42:00,
2013-03-02 08:47:00,46.2,21.4,30.22,South,178,0.0,6.3,37,0.00,,CLR,0.00,VWS V14.01,2013-03-02 15:47:00,
2013-03-02 08:52:00,46.2,20.1,30.22,SSE,147,4.0,6.7,35,0.00,,CLR,0.00,VWS V14.01,2013-03-02 15:52:00,
2013-03-02 08:57:00,46.6,19.7,30.22,ESE,112,4.9,6.7,34,0.00,,CLR,0.00,VWS V14.01,2013-03-02 15:57:00,
2013-03-02 09:02:00,47.3,19.7,30.22,ESE,108,6.3,7.6,33,0.00,,CLR,0.00,VWS V14.01,2013-03-02 16:02:00,
2013-03-02 09:07:00,48.0,19.6,30.22,ESE,114,5.8,8.3,32,0.00,,CLR,0.00,VWS V14.01,2013-03-02 16:07:00,
2013-03-02 09:12:00,50.2,20.7,30.22,East,95,5.4,8.3,31,0.00,,CLR,0.00,VWS V14.01,2013-03-02 16:12:00,
2013-03-02 09:17:00,51.1,20.8,30.22,East,98,5.8,8.3,30,0.00,,CLR,0.00,VWS V14.01,2013-03-02 16:17:00,
2013-03-02 09:22:00,51.6,20.4,30.22,ESE,121,5.8,8.3,29,0.00,,CLR,0.00,VWS V14.01,2013-03-02 16:22:00,
2013-03-02 09:26:00,54.1,21.8,30.22,SSE,155,5.8,8.3,28,0.00,,CLR,0.00,VWS V14.01,2013-03-02 16:26:00,
2013-03-02 09:31:00,55.6,22.1,30.22,ESE,115,2.7,3.1,27,0.00,,CLR,0.00,VWS V14.01,2013-03-02 16:31:00,
2013-03-02 09:36:00,51.3,19.3,30.22,ESE,109,4.5,5.4,28,0.00,,CLR,0.00,VWS V14.01,2013-03-02 16:36:00,
2013-03-02 09:41:00,53.1,20.8,30.22,SE,135,4.9,6.3,28,0.00,,CLR,0.00,VWS V14.01,2013-03-02 16:41:00,
2013-03-02 09:46:00,53.2,21.0,30.22,SSE,161,5.8,6.3,28,0.00,,CLR,0.00,VWS V14.01,2013-03-02 16:46:00,
2013-03-02 09:51:00,52.7,20.5,30.22,ESE,122,4.9,6.3,28,0.00,,CLR,0.00,VWS V14.01,2013-03-02 16:51:00,
2013-03-02 09:56:00,51.4,20.3,30.22,East,97,2.2,6.3,29,0.00,,CLR,0.00,VWS V14.01,2013-03-02 16:56:00,
2013-03-02 10:01:00,50.4,20.1,30.22,East,92,3.6,3.6,30,0.00,,CLR,0.00,VWS V14.01,2013-03-02 17:01:00,
2013-03-02 10:06:00,50.4,19.3,30.22,ESE,116,2.7,5.4,29,0.00,,CLR,0.00,VWS V14.01,2013-03-02 17:06:00,
2013-03-02 10:11:00,48.7,18.7,30.22,East,79,3.1,5.4,30,0.00,,CLR,0.00,VWS V14.01,2013-03-02 17:11:00,
2013-03-02 10:16:00,50.2,20.0,30.22,ESE,105,0.0,5.4,30,0.00,,CLR,0.00,VWS V14.01,2013-03-02 17:16:00,
2013-03-02 10:21:00,50.5,19.5,30.22,SE,125,5.4,5.4,29,0.00,,CLR,0.00,VWS V14.01,2013-03-02 17:21:00,
2013-03-02 10:26:00,52.2,20.9,30.19,SE,140,5.8,7.2,29,0.00,,CLR,0.00,VWS V14.01,2013-03-02 17:26:00,
2013-03-02 10:31:00,51.1,19.1,30.19,ESE,111,6.3,6.7,28,0.00,,CLR,0.00,VWS V14.01,2013-03-02 17:31:00,
2013-03-02 10:36:00,52.9,20.7,30.19,SE,138,4.0,7.2,28,0.00,,CLR,0.00,VWS V14.01,2013-03-02 17:36:00,
2013-03-02 10:41:00,55.0,21.7,30.19,East,85,2.2,7.2,27,0.00,,CLR,0.00,VWS V14.01,2013-03-02 17:41:00,
2013-03-02 10:46:00,53.6,20.5,30.19,ESE,116,4.9,7.2,27,0.00,,CLR,0.00,VWS V14.01,2013-03-02 17:46:00,
2013-03-02 10:51:00,53.4,20.3,30.19,ESE,107,3.6,7.2,27,0.00,,CLR,0.00,VWS V14.01,2013-03-02 17:51:00,
2013-03-02 10:56:00,55.8,22.3,30.19,SSE,149,4.9,7.6,27,0.00,,CLR,0.00,VWS V14.01,2013-03-02 17:56:00,
2013-03-02 11:01:00,50.2,18.4,30.19,SE,142,6.3,6.3,28,0.00,,CLR,0.00,VWS V14.01,2013-03-02 18:01:00,
2013-03-02 11:07:00,48.9,19.6,30.19,ESE,117,4.9,8.1,31,0.00,,CLR,0.00,VWS V14.01,2013-03-02 18:07:00,
2013-03-02 11:12:00,46.9,20.7,30.19,SE,144,4.0,8.1,35,0.00,,CLR,0.00,VWS V14.01,2013-03-02 18:12:00,
2013-03-02 11:17:00,47.1,22.2,30.19,SSE,166,4.0,8.1,37,0.00,,CLR,0.00,VWS V14.01,2013-03-02 18:17:00,
2013-03-02 11:22:00,46.4,22.2,30.19,South,170,5.4,8.1,38,0.00,,CLR,0.00,VWS V14.01,2013-03-02 18:22:00,
2013-03-02 11:27:00,47.3,22.4,30.19,South,179,4.0,8.1,37,0.00,,CLR,0.00,VWS V14.01,2013-03-02 18:27:00,
2013-03-02 11:32:00,45.7,21.5,30.19,ESE,107,4.9,4.9,38,0.00,,CLR,0.00,VWS V14.01,2013-03-02 18:32:00,
2013-03-02 11:37:00,46.2,22.0,30.19,ESE,118,2.7,5.4,38,0.00,,CLR,0.00,VWS V14.01,2013-03-02 18:37:00,
2013-03-02 11:42:00,45.1,21.1,30.19,SE,146,4.9,5.4,38,0.00,,CLR,0.00,VWS V14.01,2013-03-02 18:42:00,
2013-03-02 11:47:00,46.6,22.4,30.19,South,175,3.6,5.4,38,0.00,,CLR,0.00,VWS V14.01,2013-03-02 18:47:00,
2013-03-02 11:52:00,48.4,23.3,30.19,SW,235,5.4,5.8,37,0.00,,CLR,0.00,VWS V14.01,2013-03-02 18:52:00,
2013-03-02 11:57:00,48.0,23.0,30.19,SSE,147,4.9,5.8,37,0.00,,CLR,0.00,VWS V14.01,2013-03-02 18:57:00,
2013-03-02 12:01:00,49.8,24.6,30.19,West,259,3.1,3.6,37,0.00,,CLR,0.00,VWS V14.01,2013-03-02 19:01:00,
2013-03-02 12:06:00,49.6,24.5,30.19,West,266,0.0,3.6,37,0.00,,CLR,0.00,VWS V14.01,2013-03-02 19:06:00,
2013-03-02 12:11:00,48.9,23.8,30.19,SSE,149,0.0,3.6,37,0.00,,CLR,0.00,VWS V14.01,2013-03-02 19:11:00,
2013-03-02 12:16:00,46.2,22.0,30.19,SE,125,5.4,5.8,38,0.00,,CLR,0.00,VWS V14.01,2013-03-02 19:16:00,
2013-03-02 12:21:00,46.0,21.9,30.19,SSE,158,4.0,6.7,38,0.00,,CLR,0.00,VWS V14.01,2013-03-02 19:21:00,
2013-03-02 12:26:00,45.9,22.3,30.19,SE,141,3.1,6.7,39,0.00,,CLR,0.00,VWS V14.01,2013-03-02 19:26:00,
2013-03-02 12:31:00,45.3,21.8,30.19,ESE,115,2.7,2.7,39,0.00,,CLR,0.00,VWS V14.01,2013-03-02 19:31:00,
2013-03-02 12:36:00,46.4,22.2,30.19,South,172,3.1,3.1,38,0.00,,CLR,0.00,VWS V14.01,2013-03-02 19:36:00,
2013-03-02 12:41:00,46.2,22.6,30.19,South,169,3.1,4.0,39,0.00,,CLR,0.00,VWS V14.01,2013-03-02 19:41:00,
2013-03-02 12:46:00,46.4,22.2,30.19,South,175,3.6,4.0,38,0.00,,CLR,0.00,VWS V14.01,2013-03-02 19:46:00,
2013-03-02 12:51:00,46.9,22.7,30.19,South,173,4.0,4.9,38,0.00,,CLR,0.00,VWS V14.01,2013-03-02 19:51:00,
2013-03-02 12:56:00,47.3,23.0,30.16,South,173,0.0,4.9,38,0.00,,CLR,0.00,VWS V14.01,2013-03-02 19:56:00,
2013-03-02 13:01:00,46.6,22.4,30.16,South,173,0.0,0.0,38,0.00,,CLR,0.00,VWS V14.01,2013-03-02 20:01:00,
2013-03-02 13:06:00,45.7,21.5,30.16,SE,143,3.6,4.0,38,0.00,,CLR,0.00,VWS V14.01,2013-03-02 20:06:00,
2013-03-02 13:12:00,45.9,21.7,30.16,SSE,155,2.7,4.0,38,0.00,,CLR,0.00,VWS V14.01,2013-03-02 20:12:00,
2013-03-02 13:17:00,45.7,21.5,30.16,SSE,155,0.0,4.0,38,0.00,,CLR,0.00,VWS V14.01,2013-03-02 20:17:00,
2013-03-02 13:22:00,46.6,22.4,30.16,SSE,155,0.0,4.0,38,0.00,,CLR,0.00,VWS V14.01,2013-03-02 20:22:00,
2013-03-02 13:27:00,47.5,23.2,30.16,SSE,155,0.0,4.0,38,0.00,,CLR,0.00,VWS V14.01,2013-03-02 20:27:00,
2013-03-02 13:32:00,47.8,22.9,30.16,SSE,155,0.0,0.0,37,0.00,,CLR,0.00,VWS V14.01,2013-03-02 20:32:00,
2013-03-02 13:37:00,48.7,23.6,30.16,SSE,155,0.0,0.0,37,0.00,,CLR,0.00,VWS V14.01,2013-03-02 20:37:00,
2013-03-02 13:42:00,49.5,23.0,30.16,South,175,0.0,5.4,35,0.00,,CLR,0.00,VWS V14.01,2013-03-02 20:42:00,
2013-03-02 13:47:00,49.6,23.1,30.16,South,175,0.0,5.4,35,0.00,,CLR,0.00,VWS V14.01,2013-03-02 20:47:00,
2013-03-02 13:52:00,50.9,24.2,30.16,South,176,0.0,5.4,35,0.00,,CLR,0.00,VWS V14.01,2013-03-02 20:52:00,
2013-03-02 13:57:00,50.7,24.8,30.16,SSW,196,0.0,5.4,36,0.00,,CLR,0.00,VWS V14.01,2013-03-02 20:57:00,
2013-03-02 14:02:00,50.4,23.1,30.16,WNW,284,2.2,3.1,34,0.00,,CLR,0.00,VWS V14.01,2013-03-02 21:02:00,
2013-03-02 14:07:00,50.9,23.5,30.16,West,266,0.0,3.6,34,0.00,,CLR,0.00,VWS V14.01,2013-03-02 21:07:00,
2013-03-02 14:12:00,52.2,23.2,30.16,West,264,0.0,3.6,32,0.00,,CLR,0.00,VWS V14.01,2013-03-02 21:12:00,
2013-03-02 14:17:00,50.0,21.3,30.16,ESE,105,3.1,3.6,32,0.00,,CLR,0.00,VWS V14.01,2013-03-02 21:17:00,
2013-03-02 14:22:00,49.5,21.6,30.16,SE,133,3.6,5.8,33,0.00,,CLR,0.00,VWS V14.01,2013-03-02 21:22:00,
2013-03-02 14:27:00,50.0,21.3,30.13,SE,131,2.7,5.8,32,0.00,,CLR,0.00,VWS V14.01,2013-03-02 21:27:00,
2013-03-02 14:32:00,49.8,21.2,30.13,ESE,110,3.6,3.6,32,0.00,,CLR,0.00,VWS V14.01,2013-03-02 21:32:00,
2013-03-02 14:37:00,50.7,21.2,30.13,SE,125,2.2,4.9,31,0.00,,CLR,0.00,VWS V14.01,2013-03-02 21:37:00,
2013-03-02 14:42:00,49.8,21.2,30.13,ESE,107,4.0,4.9,32,0.00,,CLR,0.00,VWS V14.01,2013-03-02 21:42:00,
2013-03-02 14:47:00,49.1,20.5,30.13,SSE,155,3.1,8.1,32,0.00,,CLR,0.00,VWS V14.01,2013-03-02 21:47:00,
2013-03-02 14:52:00,47.7,20.7,30.13,ESE,109,4.9,8.1,34,0.00,,CLR,0.00,VWS V14.01,2013-03-02 21:52:00,
2013-03-02 14:57:00,48.6,21.5,30.13,SE,133,2.7,8.1,34,0.00,,CLR,0.00,VWS V14.01,2013-03-02 21:57:00,
2013-03-02 15:02:00,47.7,21.4,30.13,SE,137,5.4,5.8,35,0.00,,CLR,0.00,VWS V14.01,2013-03-02 22:02:00,
2013-03-02 15:07:00,47.3,21.7,30.13,ESE,116,3.1,6.3,36,0.00,,CLR,0.00,VWS V14.01,2013-03-02 22:07:00,
2013-03-02 15:12:00,47.5,21.9,30.13,SE,146,5.4,6.3,36,0.00,,CLR,0.00,VWS V14.01,2013-03-02 22:12:00,
2013-03-02 15:17:00,47.1,22.2,30.13,SE,144,4.5,8.7,37,0.00,,CLR,0.00,VWS V14.01,2013-03-02 22:17:00,
2013-03-02 15:22:00,49.1,23.3,30.13,SE,138,2.2,8.7,36,0.00,,CLR,0.00,VWS V14.01,2013-03-02 22:22:00,
2013-03-02 15:27:00,51.6,22.7,30.13,SSE,150,0.0,8.7,32,0.00,,CLR,0.00,VWS V14.01,2013-03-02 22:27:00,
2013-03-02 15:32:00,47.7,21.4,30.13,SE,140,6.3,6.3,35,0.00,,CLR,0.00,VWS V14.01,2013-03-02 22:32:00,
2013-03-02 15:37:00,46.4,21.6,30.13,SE,144,6.3,6.7,37,0.00,,CLR,0.00,VWS V14.01,2013-03-02 22:37:00,
2013-03-02 15:42:00,46.9,22.0,30.13,SE,131,4.9,6.7,37,0.00,,CLR,0.00,VWS V14.01,2013-03-02 22:42:00,
2013-03-02 15:47:00,50.4,23.8,30.13,ESE,114,0.0,6.7,35,0.00,,CLR,0.00,VWS V14.01,2013-03-02 22:47:00,
2013-03-02 15:52:00,50.4,23.8,30.13,SSE,154,5.4,6.7,35,0.00,,CLR,0.00,VWS V14.01,2013-03-02 22:52:00,
2013-03-02 15:57:00,48.6,22.2,30.10,SE,130,5.4,6.7,35,0.00,,CLR,0.00,VWS V14.01,2013-03-02 22:57:00,
2013-03-02 16:02:00,48.6,20.8,30.10,SE,143,7.6,10.1,33,0.00,,CLR,0.00,VWS V14.01,2013-03-02 23:02:00,
2013-03-02 16:07:00,46.9,20.7,30.10,ESE,120,8.3,10.1,35,0.00,,CLR,0.00,VWS V14.01,2013-03-02 23:07:00,
2013-03-02 16:12:00,47.1,21.6,30.10,SE,124,5.4,10.1,36,0.00,,CLR,0.00,VWS V14.01,2013-03-02 23:12:00,
2013-03-02 16:17:00,48.7,22.3,30.10,SSE,154,4.5,10.1,35,0.00,,CLR,0.00,VWS V14.01,2013-03-02 23:17:00,
2013-03-02 16:22:00,48.6,21.5,30.10,SSE,156,3.6,10.1,34,0.00,,CLR,0.00,VWS V14.01,2013-03-02 23:22:00,
2013-03-02 16:27:00,47.7,22.0,30.10,SSE,156,6.3,10.1,36,0.00,,CLR,0.00,VWS V14.01,2013-03-02 23:27:00,
2013-03-02 16:32:00,47.1,21.6,30.10,SSE,152,6.3,6.3,36,0.00,,CLR,0.00,VWS V14.01,2013-03-02 23:32:00,
2013-03-02 16:37:00,47.1,22.2,30.10,South,169,3.6,8.3,37,0.00,,CLR,0.00,VWS V14.01,2013-03-02 23:37:00,
2013-03-02 16:42:00,45.7,20.9,30.10,SE,146,8.1,8.7,37,0.00,,CLR,0.00,VWS V14.01,2013-03-02 23:42:00,
2013-03-02 16:47:00,46.9,22.0,30.10,SSW,210,3.6,8.7,37,0.00,,CLR,0.00,VWS V14.01,2013-03-02 23:47:00,
2013-03-02 16:52:00,46.6,21.7,30.10,West,272,3.1,8.7,37,0.00,,CLR,0.00,VWS V14.01,2013-03-02 23:52:00,
2013-03-02 16:57:00,46.0,21.9,30.10,SW,220,3.6,8.7,38,0.00,,CLR,0.00,VWS V14.01,2013-03-02 23:57:00,
2013-03-02 17:02:00,47.1,22.2,30.10,SSW,207,5.4,8.3,37,0.00,,CLR,0.00,VWS V14.01,2013-03-03 00:02:00,
2013-03-02 17:07:00,47.1,22.2,30.10,SW,225,3.6,8.3,37,0.00,,CLR,0.00,VWS V14.01,2013-03-03 00:07:00,
2013-03-02 17:12:00,46.0,21.9,30.07,South,173,3.1,8.3,38,0.00,,CLR,0.00,VWS V14.01,2013-03-03 00:12:00,
2013-03-02 17:17:00,45.7,21.5,30.07,SSE,160,3.6,8.3,38,0.00,,CLR,0.00,VWS V14.01,2013-03-03 00:17:00,
2013-03-02 17:22:00,45.9,21.1,30.07,SSW,196,5.8,8.3,37,0.00,,CLR,0.00,VWS V14.01,2013-03-03 00:22:00,
2013-03-02 17:27:00,46.4,21.6,30.07,SSW,195,8.7,10.1,37,0.00,,CLR,0.00,VWS V14.01,2013-03-03 00:27:00,
2013-03-02 17:32:00,46.4,21.6,30.07,SSW,209,5.4,6.3,37,0.00,,CLR,0.00,VWS V14.01,2013-03-03 00:32:00,
2013-03-02 17:37:00,46.6,21.7,30.07,South,186,13.2,14.5,37,0.00,,CLR,0.00,VWS V14.01,2013-03-03 00:37:00,
2013-03-02 17:42:00,47.3,21.7,30.07,SSW,205,8.1,17.4,36,0.00,,CLR,0.00,VWS V14.01,2013-03-03 00:42:00,
2013-03-02 17:47:00,46.6,21.7,30.07,SSW,198,5.4,17.4,37,0.00,,CLR,0.00,VWS V14.01,2013-03-03 00:47:00,
2013-03-02 17:52:00,47.5,21.2,30.07,South,178,10.1,17.4,35,0.00,,CLR,0.00,VWS V14.01,2013-03-03 00:52:00,
2013-03-02 17:57:00,46.9,20.7,30.07,SSW,203,8.1,17.4,35,0.00,,CLR,0.00,VWS V14.01,2013-03-03 00:57:00,
2013-03-02 18:02:00,46.2,20.8,30.07,SSW,193,8.3,8.7,36,0.00,,CLR,0.00,VWS V14.01,2013-03-03 01:02:00,
2013-03-02 18:07:00,45.9,20.4,30.07,South,186,8.3,8.7,36,0.00,,CLR,0.00,VWS V14.01,2013-03-03 01:07:00,
2013-03-02 18:12:00,45.7,19.6,30.07,SW,227,3.1,8.7,35,0.00,,CLR,0.00,VWS V14.01,2013-03-03 01:12:00,
2013-03-02 18:17:00,44.1,19.5,30.07,SSE,151,5.4,8.7,37,0.00,,CLR,0.00,VWS V14.01,2013-03-03 01:17:00,
2013-03-02 18:22:00,43.2,19.3,30.07,SSW,209,4.0,8.7,38,0.00,,CLR,0.00,VWS V14.01,2013-03-03 01:22:00,
2013-03-02 18:27:00,43.7,18.5,30.04,SSW,204,3.6,10.5,36,0.00,,CLR,0.00,VWS V14.01,2013-03-03 01:27:00,
2013-03-02 18:32:00,44.2,20.3,30.04,SSW,193,5.8,7.2,38,0.00,,CLR,0.00,VWS V14.01,2013-03-03 01:32:00,
2013-03-02 18:37:00,44.2,20.3,30.04,SW,216,8.1,11.4,38,0.00,,CLR,0.00,VWS V14.01,2013-03-03 01:37:00,
2013-03-02 18:42:00,44.2,20.3,30.04,SSW,198,10.5,12.3,38,0.00,,CLR,0.00,VWS V14.01,2013-03-03 01:42:00,
2013-03-02 18:47:00,44.2,20.3,30.04,WSW,238,7.6,12.3,38,0.00,,CLR,0.00,VWS V14.01,2013-03-03 01:47:00,
2013-03-02 18:52:00,44.1,20.1,30.04,SW,235,6.3,12.3,38,0.00,,CLR,0.00,VWS V14.01,2013-03-03 01:52:00,
2013-03-02 18:57:00,43.7,19.8,30.04,WSW,244,6.7,12.3,38,0.00,,CLR,0.00,VWS V14.01,2013-03-03 01:57:00,
2013-03-02 19:02:00,43.0,19.1,30.04,SW,221,5.8,6.3,38,0.00,,CLR,0.00,VWS V14.01,2013-03-03 02:02:00,
2013-03-02 19:07:00,42.6,18.8,30.04,SW,219,6.3,6.3,38,0.00,,CLR,0.00,VWS V14.01,2013-03-03 02:07:00,
2013-03-02 19:12:00,42.6,18.8,30.04,SW,221,6.3,10.1,38,0.00,,CLR,0.00,VWS V14.01,2013-03-03 02:12:00,
2013-03-02 19:17:00,42.6,18.8,30.04,WSW,241,6.3,10.1,38,0.00,,CLR,0.00,VWS V14.01,2013-03-03 02:17:00,
2013-03-02 19:22:00,42.1,18.9,30.04,SW,236,7.6,10.1,39,0.00,,CLR,0.00,VWS V14.01,2013-03-03 02:22:00,
2013-03-02 19:27:00,41.7,18.0,30.04,WSW,243,5.8,10.1,38,0.00,,CLR,0.00,VWS V14.01,2013-03-03 02:27:00,
2013-03-02 19:32:00,41.2,18.1,30.04,SW,221,4.9,4.9,39,0.00,,CLR,0.00,VWS V14.01,2013-03-03 02:32:00,
2013-03-02 19:37:00,41.0,18.0,30.04,WSW,239,6.3,6.3,39,0.00,,CLR,0.00,VWS V14.01,2013-03-03 02:37:00,
2013-03-02 19:42:00,41.2,18.1,30.01,SSW,206,6.3,7.6,39,0.00,,CLR,0.00,VWS V14.01,2013-03-03 02:42:00,
2013-03-02 19:47:00,41.5,18.4,30.01,SW,219,6.3,8.3,39,0.00,,CLR,0.00,VWS V14.01,2013-03-03 02:47:00,
2013-03-02 19:52:00,41.2,18.1,30.01,SSW,201,4.9,8.3,39,0.00,,CLR,0.00,VWS V14.01,2013-03-03 02:52:00,
2013-03-02 19:57:00,40.6,17.6,30.01,SSW,198,4.9,8.3,39,0.00,,CLR,0.00,VWS V14.01,2013-03-03 02:57:00,
2013-03-02 20:02:00,40.3,17.9,30.01,WSW,240,4.0,6.3,40,0.00,,CLR,0.00,VWS V14.01,2013-03-03 03:02:00,
2013-03-02 20:07:00,41.0,18.0,30.01,WSW,241,7.6,8.3,39,0.00,,CLR,0.00,VWS V14.01,2013-03-03 03:07:00,
2013-03-02 20:12:00,40.6,18.2,30.01,West,263,6.3,8.3,40,0.00,,CLR,0.00,VWS V14.01,2013-03-03 03:12:00,
2013-03-02 20:17:00,41.5,19.0,30.01,WSW,252,6.7,8.3,40,0.00,,CLR,0.00,VWS V14.01,2013-03-03 03:17:00,
2013-03-02 20:22:00,41.7,18.6,30.01,West,268,7.6,8.3,39,0.00,,CLR,0.00,VWS V14.01,2013-03-03 03:22:00,
2013-03-02 20:27:00,41.9,18.8,30.01,West,267,5.8,8.3,39,0.00,,CLR,0.00,VWS V14.01,2013-03-03 03:27:00,
2013-03-02 20:32:00,41.5,17.8,30.01,West,264,6.3,8.1,38,0.00,,CLR,0.00,VWS V14.01,2013-03-03 03:32:00,
2013-03-02 20:37:00,42.4,18.6,30.01,West,269,6.3,8.1,38,0.00,,CLR,0.00,VWS V14.01,2013-03-03 03:37:00,
2013-03-02 20:42:00,43.3,19.5,30.01,WSW,253,5.8,9.6,38,0.00,,CLR,0.00,VWS V14.01,2013-03-03 03:42:00,
2013-03-02 20:47:00,41.5,17.8,30.01,SW,227,7.6,9.6,38,0.00,,CLR,0.00,VWS V14.01,2013-03-03 03:47:00,
2013-03-02 20:52:00,41.0,17.4,30.01,WNW,290,5.8,9.6,38,0.00,,CLR,0.00,VWS V14.01,2013-03-03 03:52:00,
2013-03-02 20:57:00,40.6,18.2,30.01,SW,235,6.3,9.6,40,0.00,,CLR,0.00,VWS V14.01,2013-03-03 03:57:00,
2013-03-02 21:02:00,39.7,17.4,30.01,WSW,237,3.6,4.0,40,0.00,,CLR,0.00,VWS V14.01,2013-03-03 04:02:00,
2013-03-02 21:07:00,39.4,17.1,30.01,WSW,257,2.7,4.0,40,0.00,,CLR,0.00,VWS V14.01,2013-03-03 04:07:00,
2013-03-02 21:12:00,39.9,17.6,30.01,West,259,3.6,6.3,40,0.00,,CLR,0.00,VWS V14.01,2013-03-03 04:12:00,
2013-03-02 21:17:00,39.6,17.2,30.01,South,187,2.7,6.3,40,0.00,,CLR,0.00,VWS V14.01,2013-03-03 04:17:00,
2013-03-02 21:22:00,40.1,17.1,30.01,SSE,150,4.0,6.3,39,0.00,,CLR,0.00,VWS V14.01,2013-03-03 04:22:00,
2013-03-02 21:27:00,39.4,17.1,30.01,SW,233,0.0,6.3,40,0.00,,CLR,0.00,VWS V14.01,2013-03-03 04:27:00,
2013-03-02 21:32:00,38.7,17.6,30.01,WSW,246,4.0,6.3,42,0.00,,CLR,0.00,VWS V14.01,2013-03-03 04:32:00,
2013-03-02 21:37:00,38.3,16.7,30.01,WSW,244,0.0,6.3,41,0.00,,CLR,0.00,VWS V14.01,2013-03-03 04:37:00,
2013-03-02 21:42:00,39.4,17.1,30.01,SW,220,4.0,6.3,40,0.00,,CLR,0.00,VWS V14.01,2013-03-03 04:42:00,
2013-03-02 21:47:00,39.7,16.8,30.01,WSW,249,3.6,6.3,39,0.00,,CLR,0.00,VWS V14.01,2013-03-03 04:47:00,
2013-03-02 21:52:00,39.2,17.5,30.01,WSW,253,3.6,6.3,41,0.00,,CLR,0.00,VWS V14.01,2013-03-03 04:52:00,
2013-03-02 21:57:00,38.8,16.6,29.98,SW,226,4.9,6.3,40,0.00,,CLR,0.00,VWS V14.01,2013-03-03 04:57:00,
2013-03-02 22:00:00,39.6,16.7,29.98,SSW,209,3.1,6.3,39,0.00,,CLR,0.00,VWS V14.01,2013-03-03 05:00:00,
2013-03-02 22:05:00,41.2,17.5,29.98,SSE,164,0.0,3.6,38,0.00,,CLR,0.00,VWS V14.01,2013-03-03 05:05:00,
2013-03-02 22:10:00,39.6,17.2,29.98,WNW,285,0.0,3.6,40,0.00,,CLR,0.00,VWS V14.01,2013-03-03 05:10:00,
2013-03-02 22:15:00,38.3,18.8,29.98,WNW,299,0.0,4.9,45,0.00,,CLR,0.00,VWS V14.01,2013-03-03 05:15:00,
2013-03-02 22:20:00,37.0,18.7,29.98,WNW,286,2.7,4.9,47,0.00,,CLR,0.00,VWS V14.01,2013-03-03 05:20:00,
2013-03-02 22:25:00,37.2,20.3,29.98,WSW,251,5.4,5.4,50,0.00,,CLR,0.00,VWS V14.01,2013-03-03 05:25:00,
2013-03-02 22:30:00,37.0,22.0,29.98,West,259,2.7,5.8,54,0.00,,CLR,0.00,VWS V14.01,2013-03-03 05:30:00,
2013-03-02 22:35:00,36.3,20.8,29.98,WSW,245,4.9,6.7,53,0.00,,CLR,0.00,VWS V14.01,2013-03-03 05:35:00,
2013-03-02 22:40:00,37.0,20.1,29.98,West,265,4.9,6.7,50,0.00,,CLR,0.00,VWS V14.01,2013-03-03 05:40:00,
2013-03-02 22:45:00,36.9,20.9,29.98,WSW,237,4.5,6.7,52,0.00,,CLR,0.00,VWS V14.01,2013-03-03 05:45:00,
2013-03-02 22:50:00,37.4,19.0,29.98,South,190,3.6,6.7,47,0.00,,CLR,0.00,VWS V14.01,2013-03-03 05:50:00,
2013-03-02 22:55:00,38.7,17.6,29.98,SSW,201,4.9,6.7,42,0.00,,CLR,0.00,VWS V14.01,2013-03-03 05:55:00,
2013-03-02 23:00:00,38.3,17.2,29.98,SW,214,4.9,6.7,42,0.00,,CLR,0.00,VWS V14.01,2013-03-03 06:00:00,
2013-03-02 23:05:00,37.9,17.5,29.98,WSW,246,0.0,3.6,43,0.00,,CLR,0.00,VWS V14.01,2013-03-03 06:05:00,
2013-03-02 23:10:00,37.6,17.1,29.98,SSW,195,0.0,3.6,43,0.00,,CLR,0.00,VWS V14.01,2013-03-03 06:10:00,
2013-03-02 23:15:00,36.9,20.4,29.98,SW,222,3.1,5.4,51,0.00,,CLR,0.00,VWS V14.01,2013-03-03 06:15:00,
2013-03-02 23:20:00,36.7,21.2,29.98,West,263,4.0,5.4,53,0.00,,CLR,0.00,VWS V14.01,2013-03-03 06:20:00,
2013-03-02 23:25:00,37.0,19.7,29.95,SSW,200,0.0,5.4,49,0.00,,CLR,0.00,VWS V14.01,2013-03-03 06:25:00,
2013-03-02 23:30:00,37.9,19.0,29.95,WSW,237,3.1,5.4,46,0.00,,CLR,0.00,VWS V14.01,2013-03-03 06:30:00,
2013-03-02 23:35:00,41.9,18.8,29.95,NW,320,8.3,10.5,39,0.00,,CLR,0.00,VWS V14.01,2013-03-03 06:35:00,
2013-03-02 23:40:00,44.2,17.7,29.95,WNW,301,8.3,12.8,34,0.00,,CLR,0.00,VWS V14.01,2013-03-03 06:40:00,
2013-03-02 23:45:00,46.2,18.0,29.95,WNW,295,4.9,13.2,32,0.00,,CLR,0.00,VWS V14.01,2013-03-03 06:45:00,
2013-03-02 23:50:00,45.5,17.4,29.95,North,0,5.4,14.5,32,0.00,,CLR,0.00,VWS V14.01,2013-03-03 06:50:00,
2013-03-02 23:55:00,44.8,16.7,29.95,West,281,8.7,14.5,32,0.00,,CLR,0.00,VWS V14.01,2013-03-03 06:55:00,